Time;durP1;ratioP1;P1;durP2;ratioP2;P2;SDS_P1;SDS_P2;PMS_P1;PMS_P2;Temp;Humidity;BMP_temperature;BMP_pressure;BME280_temperature;BME280_humidity;BME280_pressure;Samples;Min_cycle;Max_cycle;Signal;HPM_P1;HPM_P2
2022/01/08 00:01:11;;;;;;;;;;;1.80;99.90;;;;;;5009274;28;19910;-70
2022/01/08 00:03:40;;;;;;;;;;;2.00;99.90;;;;;;5007032;28;19955;-71
2022/01/08 00:06:06;;;;;;;;;;;2.00;99.90;;;;;;5003393;28;19917;-71
2022/01/08 00:08:32;;;;;;;;;;;2.00;99.90;;;;;;5009968;28;19987;-70
2022/01/08 00:10:58;;;;;;;;;;;2.00;99.90;;;;;;5008037;28;20004;-70
2022/01/08 00:13:24;;;;;;;;;;;1.90;99.90;;;;;;5009240;28;19992;-71
2022/01/08 00:15:50;;;;;;;;;;;2.00;99.90;;;;;;5005845;28;19913;-72
2022/01/08 00:18:16;;;;;;;;;;;2.00;99.90;;;;;;5004018;28;19913;-72
2022/01/08 00:20:41;;;;;;;;;;;2.00;99.90;;;;;;5024479;28;19909;-71
2022/01/08 00:23:07;;;;;;;;;;;2.00;99.90;;;;;;5006865;28;19966;-71
2022/01/08 00:25:33;;;;;;;;;;;2.00;99.90;;;;;;5009669;28;20397;-71
2022/01/08 00:27:58;;;;;;;;;;;2.00;99.90;;;;;;5010381;28;20360;-71
2022/01/08 00:30:24;;;;;;;;;;;2.00;99.90;;;;;;5008967;28;19916;-71
2022/01/08 00:32:49;;;;;;;;;;;2.00;99.90;;;;;;5008258;28;19910;-71
2022/01/08 00:35:17;;;;;;;;;;;2.00;99.90;;;;;;5009717;28;19952;-72
2022/01/08 00:37:43;;;;;;;;;;;2.00;99.90;;;;;;5006715;28;20320;-71
2022/01/08 00:40:09;;;;;;;;;;;2.00;99.90;;;;;;5009245;28;19923;-71
2022/01/08 00:42:42;;;;;;;;;;;2.00;99.90;;;;;;5003207;28;20016;-71
2022/01/08 00:45:09;;;;;;;;;;;2.00;99.90;;;;;;5008067;28;20004;-70
2022/01/08 00:47:36;;;;;;;;;;;2.00;99.90;;;;;;5010467;28;20000;-71
2022/01/08 00:50:04;;;;;;;;;;;2.00;99.90;;;;;;5013677;28;19909;-70
2022/01/08 00:52:34;;;;;;;;;;;2.10;99.90;;;;;;5009740;28;19917;-71
2022/01/08 00:55:00;;;;;;;;;;;2.10;99.90;;;;;;5007410;28;19910;-70
2022/01/08 00:57:41;;;;;;;;;;;2.10;99.90;;;;;;5009746;28;20068;-71
2022/01/08 01:00:18;;;;;;;;;;;2.10;99.90;;;;;;5011183;28;19909;-71
2022/01/08 01:02:54;;;;;;;;;;;2.00;99.90;;;;;;5007952;28;19917;-72
2022/01/08 01:05:28;;;;;;;;;;;1.90;99.90;;;;;;5009276;28;19909;-70
2022/01/08 01:07:54;;;;;;;;;;;1.90;99.90;;;;;;5009528;28;20410;-71
2022/01/08 01:10:19;;;;;;;;;;;1.90;99.90;;;;;;5025090;28;19974;-72
2022/01/08 01:12:45;;;;;;;;;;;1.90;99.90;;;;;;5010050;28;19906;-71
2022/01/08 01:15:12;;;;;;;;;;;1.80;99.90;;;;;;5008782;28;19925;-70
2022/01/08 01:17:38;;;;;;;;;;;1.80;99.90;;;;;;5010440;28;20367;-72
2022/01/08 01:20:05;;;;;;;;;;;1.70;99.90;;;;;;5005142;28;19971;-71
2022/01/08 01:22:44;;;;;;;;;;;1.70;99.90;;;;;;5007476;28;19920;-71
2022/01/08 01:25:14;;;;;;;;;;;1.70;99.90;;;;;;5009521;28;19921;-71
2022/01/08 01:30:15;;;;;;;;;;;1.80;99.90;;;;;;5012172;28;19909;-71
2022/01/08 01:49:03;;;;;;;;;;;1.90;99.90;;;;;;5009315;28;19964;-71
2022/01/08 01:51:29;;;;;;;;;;;2.00;99.90;;;;;;5008923;28;19948;-71
2022/01/08 01:53:55;;;;;;;;;;;1.90;99.90;;;;;;5007598;28;19943;-71
2022/01/08 01:56:21;;;;;;;;;;;1.90;99.90;;;;;;5007099;28;19921;-70
2022/01/08 01:58:47;;;;;;;;;;;1.90;99.90;;;;;;5008797;28;20379;-70
2022/01/08 02:01:13;;;;;;;;;;;1.90;99.90;;;;;;5008354;28;19913;-70
2022/01/08 02:03:39;;;;;;;;;;;2.00;99.90;;;;;;5008622;28;19971;-70
2022/01/08 02:06:05;;;;;;;;;;;2.00;99.90;;;;;;5007147;28;19965;-71
2022/01/08 02:08:31;;;;;;;;;;;2.00;99.90;;;;;;5007176;28;20330;-69
2022/01/08 02:10:57;;;;;;;;;;;2.00;99.90;;;;;;5007484;28;19909;-71
2022/01/08 02:13:26;;;;;;;;;;;2.10;99.90;;;;;;5005488;28;20363;-69
2022/01/08 02:15:54;;;;;;;;;;;2.10;99.90;;;;;;5008197;28;20047;-71
2022/01/08 02:18:20;;;;;;;;;;;2.00;99.90;;;;;;5007813;28;19909;-71
2022/01/08 02:20:46;;;;;;;;;;;2.00;99.90;;;;;;5004975;28;19910;-70
2022/01/08 02:23:11;;;;;;;;;;;2.00;99.90;;;;;;5007591;28;19914;-71
2022/01/08 02:25:37;;;;;;;;;;;2.10;99.90;;;;;;5006676;28;19925;-70
2022/01/08 02:28:03;;;;;;;;;;;2.00;99.90;;;;;;5003042;28;20395;-70
2022/01/08 02:30:29;;;;;;;;;;;2.00;99.90;;;;;;5007979;28;19913;-71
2022/01/08 02:32:54;;;;;;;;;;;2.10;99.90;;;;;;5007294;28;20374;-70
2022/01/08 02:35:22;;;;;;;;;;;2.10;99.90;;;;;;5008049;28;19909;-70
2022/01/08 02:37:48;;;;;;;;;;;2.10;99.90;;;;;;5003178;28;19959;-70
2022/01/08 02:40:14;;;;;;;;;;;2.20;99.90;;;;;;5007471;28;20403;-70
2022/01/08 02:42:49;;;;;;;;;;;2.20;99.90;;;;;;5008449;28;19913;-70
2022/01/08 02:45:19;;;;;;;;;;;2.20;99.90;;;;;;5004613;28;20051;-70
2022/01/08 02:47:44;;;;;;;;;;;2.00;99.90;;;;;;5006412;28;19909;-69
2022/01/08 02:50:11;;;;;;;;;;;2.00;99.90;;;;;;5009490;28;20256;-72
2022/01/08 02:52:41;;;;;;;;;;;2.00;99.90;;;;;;5006305;28;19916;-71
2022/01/08 02:55:07;;;;;;;;;;;2.00;99.90;;;;;;5004191;28;19909;-71
2022/01/08 02:57:32;;;;;;;;;;;2.00;99.90;;;;;;5007293;28;19924;-70
2022/01/08 02:59:58;;;;;;;;;;;1.90;99.90;;;;;;5003621;28;19996;-70
2022/01/08 03:02:24;;;;;;;;;;;1.90;99.90;;;;;;5007477;28;19916;-70
2022/01/08 03:04:50;;;;;;;;;;;2.00;99.90;;;;;;5007102;28;19975;-70
2022/01/08 03:07:15;;;;;;;;;;;2.10;99.90;;;;;;5005222;28;19909;-70
2022/01/08 03:09:42;;;;;;;;;;;2.10;99.90;;;;;;5006420;28;20372;-70
2022/01/08 03:12:09;;;;;;;;;;;2.10;99.90;;;;;;5008603;28;20423;-70
2022/01/08 03:14:34;;;;;;;;;;;2.10;99.90;;;;;;5004565;28;19965;-70
2022/01/08 03:17:00;;;;;;;;;;;2.10;99.90;;;;;;5006088;28;19949;-70
2022/01/08 03:19:26;;;;;;;;;;;2.10;99.90;;;;;;5003001;28;19941;-69
2022/01/08 03:21:54;;;;;;;;;;;2.00;99.90;;;;;;5007899;28;19909;-71
2022/01/08 03:24:28;;;;;;;;;;;2.00;99.90;;;;;;5008862;28;19956;-72
2022/01/08 03:26:54;;;;;;;;;;;2.00;99.90;;;;;;5012383;28;19952;-71
2022/01/08 03:29:19;;;;;;;;;;;2.00;99.90;;;;;;5010229;28;19971;-71
2022/01/08 03:31:45;;;;;;;;;;;1.90;99.90;;;;;;5009222;28;19910;-72
2022/01/08 03:34:11;;;;;;;;;;;2.00;99.90;;;;;;5009640;28;20042;-71
2022/01/08 03:36:36;;;;;;;;;;;2.10;99.90;;;;;;5010372;28;20244;-71
2022/01/08 03:39:02;;;;;;;;;;;2.10;99.90;;;;;;5007909;28;20271;-70
2022/01/08 03:41:28;;;;;;;;;;;2.00;99.90;;;;;;5011702;28;20060;-71
2022/01/08 03:43:53;;;;;;;;;;;2.10;99.90;;;;;;5007487;28;19921;-69
2022/01/08 03:46:20;;;;;;;;;;;2.00;99.90;;;;;;5010994;28;20394;-70
2022/01/08 03:48:58;;;;;;;;;;;1.90;99.90;;;;;;5005046;28;19909;-70
2022/01/08 03:51:23;;;;;;;;;;;1.80;99.90;;;;;;5010044;28;19972;-71
2022/01/08 03:53:49;;;;;;;;;;;1.90;99.90;;;;;;5010495;28;19909;-71
2022/01/08 03:56:14;;;;;;;;;;;1.90;99.90;;;;;;5008926;28;20338;-71
2022/01/08 03:58:40;;;;;;;;;;;1.80;99.90;;;;;;5010351;28;19910;-71
2022/01/08 04:01:06;;;;;;;;;;;1.90;99.90;;;;;;5011428;28;19945;-71
2022/01/08 04:03:31;;;;;;;;;;;1.90;99.90;;;;;;5009262;28;20259;-71
2022/01/08 04:05:57;;;;;;;;;;;1.90;99.90;;;;;;5010877;28;19909;-72
2022/01/08 04:08:23;;;;;;;;;;;2.00;99.90;;;;;;5007466;28;19933;-72
2022/01/08 04:10:48;;;;;;;;;;;1.90;99.90;;;;;;5006250;28;19909;-70
2022/01/08 04:13:25;;;;;;;;;;;1.90;99.90;;;;;;5011452;28;19957;-70
2022/01/08 04:15:54;;;;;;;;;;;1.90;99.90;;;;;;5009175;28;20351;-71
2022/01/08 04:18:20;;;;;;;;;;;1.90;99.90;;;;;;5005636;28;19920;-70
2022/01/08 04:23:32;;;;;;;;;;;1.90;99.90;;;;;;5007797;28;19936;-71
2022/01/08 04:25:57;;;;;;;;;;;1.80;99.90;;;;;;5010347;28;20351;-70
2022/01/08 04:28:23;;;;;;;;;;;1.80;99.90;;;;;;5008705;28;19990;-70
2022/01/08 04:30:48;;;;;;;;;;;1.70;99.90;;;;;;5008734;28;19917;-71
2022/01/08 04:33:14;;;;;;;;;;;1.70;99.90;;;;;;5008407;28;20298;-70
2022/01/08 04:35:40;;;;;;;;;;;1.60;99.90;;;;;;5009555;28;19993;-71
2022/01/08 04:38:05;;;;;;;;;;;1.60;99.90;;;;;;5005825;28;20006;-70
2022/01/08 04:40:32;;;;;;;;;;;1.70;99.90;;;;;;5009827;28;19942;-70
2022/01/08 04:42:59;;;;;;;;;;;1.60;99.90;;;;;;5006892;28;19913;-71
2022/01/08 04:45:28;;;;;;;;;;;1.70;99.90;;;;;;5010925;28;19910;-72
2022/01/08 04:47:54;;;;;;;;;;;1.70;99.90;;;;;;5008548;28;20307;-71
2022/01/08 04:50:20;;;;;;;;;;;1.80;99.90;;;;;;5010621;28;19909;-71
2022/01/08 04:52:45;;;;;;;;;;;1.80;99.90;;;;;;5005668;28;20373;-71
2022/01/08 04:55:11;;;;;;;;;;;1.80;99.90;;;;;;5003583;28;19991;-71
2022/01/08 04:57:36;;;;;;;;;;;1.80;99.90;;;;;;5006310;28;19914;-70
2022/01/08 05:00:03;;;;;;;;;;;1.80;99.90;;;;;;5007674;28;19910;-71
2022/01/08 05:02:28;;;;;;;;;;;1.80;99.90;;;;;;5006090;28;20386;-70
2022/01/08 05:04:54;;;;;;;;;;;1.80;99.90;;;;;;5011480;28;19917;-71
2022/01/08 05:07:19;;;;;;;;;;;1.80;99.90;;;;;;5009958;28;20004;-71
2022/01/08 05:09:45;;;;;;;;;;;1.80;99.90;;;;;;5009363;28;20225;-71
2022/01/08 05:12:11;;;;;;;;;;;1.90;99.90;;;;;;5010280;28;19945;-72
2022/01/08 05:14:36;;;;;;;;;;;1.90;99.90;;;;;;5009231;28;19939;-71
2022/01/08 05:17:02;;;;;;;;;;;1.90;99.90;;;;;;5010036;28;20338;-71
2022/01/08 05:19:42;;;;;;;;;;;1.90;99.90;;;;;;5007757;28;20012;-71
2022/01/08 05:22:10;;;;;;;;;;;2.00;99.90;;;;;;5005879;28;20264;-70
2022/01/08 05:24:36;;;;;;;;;;;2.00;99.90;;;;;;5006820;28;20363;-72
2022/01/08 05:27:03;;;;;;;;;;;2.00;99.90;;;;;;5008136;28;19985;-68
2022/01/08 05:29:30;;;;;;;;;;;2.00;99.90;;;;;;5006442;28;20423;-70
2022/01/08 05:31:56;;;;;;;;;;;2.00;99.90;;;;;;5008171;28;19925;-69
2022/01/08 05:34:21;;;;;;;;;;;2.00;99.90;;;;;;5007516;28;19909;-69
2022/01/08 05:36:47;;;;;;;;;;;2.00;99.90;;;;;;5005075;28;19913;-69
2022/01/08 05:39:13;;;;;;;;;;;2.00;99.90;;;;;;5007670;28;19913;-69
2022/01/08 05:41:38;;;;;;;;;;;1.90;99.90;;;;;;5006680;28;19953;-69
2022/01/08 05:44:04;;;;;;;;;;;1.90;99.90;;;;;;5009733;28;19975;-69
2022/01/08 05:46:29;;;;;;;;;;;1.90;99.90;;;;;;5007381;28;19928;-70
2022/01/08 05:49:00;;;;;;;;;;;1.90;99.90;;;;;;5006799;28;19913;-69
2022/01/08 05:51:26;;;;;;;;;;;1.90;99.90;;;;;;5007977;28;20429;-69
2022/01/08 05:53:51;;;;;;;;;;;2.00;99.90;;;;;;5006091;28;19909;-69
2022/01/08 05:56:17;;;;;;;;;;;2.00;99.90;;;;;;5009757;28;20254;-69
2022/01/08 05:58:42;;;;;;;;;;;1.90;99.90;;;;;;5008131;28;19963;-68
2022/01/08 06:01:08;;;;;;;;;;;1.90;99.90;;;;;;5009054;28;20008;-69
2022/01/08 06:03:33;;;;;;;;;;;1.90;99.90;;;;;;5009952;28;20326;-70
2022/01/08 06:05:59;;;;;;;;;;;1.90;99.90;;;;;;5005379;28;19909;-70
2022/01/08 06:08:25;;;;;;;;;;;1.90;99.90;;;;;;5006700;28;20510;-70
2022/01/08 06:10:50;;;;;;;;;;;1.90;99.90;;;;;;5002920;28;19945;-70
2022/01/08 06:13:16;;;;;;;;;;;1.90;99.90;;;;;;5008373;28;20447;-70
2022/01/08 06:15:41;;;;;;;;;;;1.80;99.90;;;;;;5007724;28;20005;-70
2022/01/08 06:18:07;;;;;;;;;;;1.80;99.90;;;;;;5008037;28;20103;-70
2022/01/08 06:20:32;;;;;;;;;;;1.80;99.90;;;;;;5009668;28;19921;-70
2022/01/08 06:22:58;;;;;;;;;;;1.70;99.90;;;;;;5006557;28;19913;-70
2022/01/08 06:25:24;;;;;;;;;;;1.60;99.90;;;;;;5007162;28;20381;-70
2022/01/08 06:27:49;;;;;;;;;;;1.60;99.90;;;;;;5008174;28;19910;-70
2022/01/08 06:30:15;;;;;;;;;;;1.50;99.90;;;;;;5006640;28;20004;-71
2022/01/08 06:32:41;;;;;;;;;;;1.50;99.90;;;;;;5009179;28;20299;-70
2022/01/08 06:35:07;;;;;;;;;;;1.60;99.90;;;;;;5009810;28;20357;-70
2022/01/08 06:37:32;;;;;;;;;;;1.60;99.90;;;;;;5005861;28;19909;-69
2022/01/08 06:39:58;;;;;;;;;;;1.60;99.90;;;;;;5008655;28;20271;-68
2022/01/08 06:42:23;;;;;;;;;;;1.50;99.90;;;;;;5006611;28;19910;-69
2022/01/08 06:44:49;;;;;;;;;;;1.60;99.90;;;;;;5009571;28;20406;-69
2022/01/08 06:47:15;;;;;;;;;;;1.60;99.90;;;;;;5010908;28;19909;-68
2022/01/08 06:49:41;;;;;;;;;;;1.50;99.90;;;;;;5007664;28;19909;-70
2022/01/08 06:52:06;;;;;;;;;;;1.50;99.90;;;;;;5004036;28;19909;-69
2022/01/08 06:54:32;;;;;;;;;;;1.60;99.90;;;;;;5007848;28;20386;-71
2022/01/08 06:56:57;;;;;;;;;;;1.60;99.90;;;;;;5007427;28;20019;-70
2022/01/08 06:59:23;;;;;;;;;;;1.50;99.90;;;;;;5012924;28;20286;-70
2022/01/08 07:01:48;;;;;;;;;;;1.50;99.90;;;;;;5010482;28;19909;-70
2022/01/08 07:04:14;;;;;;;;;;;1.50;99.90;;;;;;5010685;28;19920;-70
2022/01/08 07:06:40;;;;;;;;;;;1.50;99.90;;;;;;5010678;28;19910;-69
2022/01/08 07:09:06;;;;;;;;;;;1.50;99.90;;;;;;5010318;28;19968;-70
2022/01/08 07:11:31;;;;;;;;;;;1.40;99.90;;;;;;5009896;28;19916;-71
2022/01/08 07:13:57;;;;;;;;;;;1.50;99.90;;;;;;5012143;28;19913;-69
2022/01/08 07:16:23;;;;;;;;;;;1.50;99.90;;;;;;5011365;28;19913;-69
2022/01/08 07:18:48;;;;;;;;;;;1.50;99.90;;;;;;5012715;28;19988;-70
2022/01/08 07:21:14;;;;;;;;;;;1.60;99.90;;;;;;5010564;28;20286;-70
2022/01/08 07:23:39;;;;;;;;;;;1.60;99.90;;;;;;5005548;28;19921;-70
2022/01/08 07:26:05;;;;;;;;;;;1.50;99.90;;;;;;5007949;28;19909;-70
2022/01/08 07:28:30;;;;;;;;;;;1.50;99.90;;;;;;5012777;28;19985;-72
2022/01/08 07:30:56;;;;;;;;;;;1.60;99.90;;;;;;5012965;28;20019;-72
2022/01/08 07:33:21;;;;;;;;;;;1.60;99.90;;;;;;5014609;28;19967;-71
2022/01/08 07:35:47;;;;;;;;;;;1.60;99.90;;;;;;5004256;28;19909;-71
2022/01/08 07:38:13;;;;;;;;;;;1.70;99.90;;;;;;5009554;28;19921;-71
2022/01/08 07:40:38;;;;;;;;;;;1.80;99.90;;;;;;5008847;28;20003;-71
2022/01/08 07:43:04;;;;;;;;;;;1.80;99.90;;;;;;5008353;28;19913;-71
2022/01/08 07:45:30;;;;;;;;;;;1.80;99.90;;;;;;5011844;28;20413;-71
2022/01/08 07:47:55;;;;;;;;;;;1.90;99.90;;;;;;5010840;28;19909;-72
2022/01/08 07:50:22;;;;;;;;;;;1.90;99.90;;;;;;5012996;28;19909;-71
2022/01/08 07:52:47;;;;;;;;;;;1.90;99.90;;;;;;5008623;28;19947;-72
2022/01/08 07:55:13;;;;;;;;;;;2.00;99.90;;;;;;5009170;28;20355;-71
2022/01/08 07:57:39;;;;;;;;;;;2.00;99.90;;;;;;5006103;28;19917;-73
2022/01/08 08:00:05;;;;;;;;;;;2.00;99.90;;;;;;5009093;28;19916;-71
2022/01/08 08:02:30;;;;;;;;;;;2.00;99.90;;;;;;5012188;28;19944;-71
2022/01/08 08:04:56;;;;;;;;;;;2.10;99.90;;;;;;5005370;28;19975;-72
2022/01/08 08:07:29;;;;;;;;;;;2.00;99.90;;;;;;5006381;28;19955;-71
2022/01/08 08:09:55;;;;;;;;;;;2.00;99.90;;;;;;4997511;28;19917;-70
2022/01/08 08:12:20;;;;;;;;;;;2.00;99.90;;;;;;5006788;28;19964;-73
2022/01/08 08:14:46;;;;;;;;;;;2.10;99.90;;;;;;5012021;28;19952;-72
2022/01/08 08:17:12;;;;;;;;;;;2.20;99.90;;;;;;5008281;28;19931;-70
2022/01/08 08:19:37;;;;;;;;;;;2.30;99.90;;;;;;5012240;28;19910;-70
2022/01/08 08:22:03;;;;;;;;;;;2.30;99.90;;;;;;5007930;28;19918;-70
2022/01/08 08:24:28;;;;;;;;;;;2.40;99.90;;;;;;5005894;28;20410;-70
2022/01/08 08:26:54;;;;;;;;;;;2.50;99.90;;;;;;5008550;28;19909;-71
2022/01/08 08:29:19;;;;;;;;;;;2.60;99.90;;;;;;5011316;28;19909;-70
2022/01/08 08:31:45;;;;;;;;;;;2.60;99.90;;;;;;5007943;28;19909;-69
2022/01/08 08:34:11;;;;;;;;;;;2.70;99.90;;;;;;5009087;28;20401;-70
2022/01/08 08:36:36;;;;;;;;;;;2.70;99.90;;;;;;5009886;28;19941;-70
2022/01/08 08:39:02;;;;;;;;;;;2.70;99.90;;;;;;5011006;28;19992;-71
2022/01/08 08:41:30;;;;;;;;;;;2.80;99.90;;;;;;5007529;28;19909;-71
2022/01/08 08:43:55;;;;;;;;;;;2.80;99.90;;;;;;5008294;28;19913;-72
2022/01/08 08:46:21;;;;;;;;;;;2.90;99.90;;;;;;5008788;28;19925;-71
2022/01/08 08:48:46;;;;;;;;;;;3.00;99.90;;;;;;5008934;28;20378;-71
2022/01/08 08:51:12;;;;;;;;;;;3.10;99.90;;;;;;5011145;28;19991;-71
2022/01/08 08:53:38;;;;;;;;;;;3.30;99.90;;;;;;5007489;28;19924;-72
2022/01/08 08:56:04;;;;;;;;;;;3.40;99.90;;;;;;5009955;28;20064;-71
2022/01/08 08:58:30;;;;;;;;;;;3.40;99.90;;;;;;5008689;28;19918;-71
2022/01/08 09:00:55;;;;;;;;;;;3.30;99.90;;;;;;5009545;28;19921;-71
2022/01/08 09:03:21;;;;;;;;;;;3.40;99.90;;;;;;5009789;28;20015;-72
2022/01/08 09:05:47;;;;;;;;;;;3.30;99.90;;;;;;5010738;28;19910;-70
2022/01/08 09:08:12;;;;;;;;;;;3.50;99.90;;;;;;5011601;28;19979;-70
2022/01/08 09:10:38;;;;;;;;;;;3.50;99.90;;;;;;5016240;28;19932;-72
2022/01/08 09:13:04;;;;;;;;;;;3.60;99.90;;;;;;5011057;28;19996;-70
2022/01/08 09:15:30;;;;;;;;;;;3.60;99.90;;;;;;5008341;28;20020;-71
2022/01/08 09:17:57;;;;;;;;;;;3.70;99.90;;;;;;5009205;28;19909;-71
2022/01/08 09:20:23;;;;;;;;;;;3.80;99.90;;;;;;5009069;28;19991;-72
2022/01/08 09:22:49;;;;;;;;;;;4.10;99.90;;;;;;5010507;28;19920;-72
2022/01/08 09:25:14;;;;;;;;;;;4.20;99.90;;;;;;5011031;28;19906;-71
2022/01/08 09:27:40;;;;;;;;;;;4.20;99.90;;;;;;5009318;28;19992;-72
2022/01/08 09:30:06;;;;;;;;;;;4.30;99.90;;;;;;5008166;28;19917;-71
2022/01/08 09:32:32;;;;;;;;;;;4.40;99.90;;;;;;5008588;28;20030;-72
2022/01/08 09:34:58;;;;;;;;;;;4.50;99.90;;;;;;5009451;28;20043;-72
2022/01/08 09:37:24;;;;;;;;;;;4.60;99.90;;;;;;5004660;28;20402;-71
2022/01/08 09:39:49;;;;;;;;;;;4.70;99.90;;;;;;5009051;28;19909;-71
2022/01/08 09:42:15;;;;;;;;;;;4.70;99.90;;;;;;5009646;28;19906;-72
2022/01/08 09:44:44;;;;;;;;;;;4.70;99.90;;;;;;5008449;28;20012;-70
2022/01/08 09:47:11;;;;;;;;;;;4.80;99.90;;;;;;5010349;28;19964;-71
2022/01/08 09:49:37;;;;;;;;;;;4.70;99.90;;;;;;5009241;28;20414;-71
2022/01/08 09:52:03;;;;;;;;;;;4.70;99.90;;;;;;5011840;28;20108;-70
2022/01/08 09:54:30;;;;;;;;;;;4.80;99.90;;;;;;5006514;28;19909;-71
2022/01/08 09:56:56;;;;;;;;;;;4.80;99.90;;;;;;5006192;28;19914;-71
2022/01/08 09:59:21;;;;;;;;;;;4.90;99.90;;;;;;5009047;28;19967;-71
2022/01/08 10:01:54;;;;;;;;;;;4.90;99.90;;;;;;5009528;28;19918;-70
2022/01/08 10:04:24;;;;;;;;;;;5.00;99.90;;;;;;5010355;28;19917;-70
2022/01/08 10:06:49;;;;;;;;;;;5.00;99.90;;;;;;5007895;28;19957;-73
2022/01/08 10:09:15;;;;;;;;;;;5.00;99.90;;;;;;5007165;28;19951;-71
2022/01/08 10:11:47;;;;;;;;;;;5.20;99.90;;;;;;5009428;28;20003;-71
2022/01/08 10:14:17;;;;;;;;;;;5.20;99.90;;;;;;5009656;28;20534;-72
2022/01/08 10:19:27;;;;;;;;;;;5.40;99.90;;;;;;5007515;28;20394;-70
2022/01/08 10:21:53;;;;;;;;;;;5.40;99.90;;;;;;5008785;28;19953;-71
2022/01/08 10:24:23;;;;;;;;;;;5.50;99.90;;;;;;5007135;28;19936;-72
2022/01/08 10:26:51;;;;;;;;;;;5.60;99.90;;;;;;5009688;28;20318;-71
2022/01/08 10:29:18;;;;;;;;;;;5.80;99.90;;;;;;5009926;28;19921;-73
2022/01/08 10:31:51;;;;;;;;;;;5.70;99.90;;;;;;5009216;28;19917;-73
2022/01/08 10:34:20;;;;;;;;;;;5.80;99.90;;;;;;5014647;28;19913;-72
2022/01/08 10:36:57;;;;;;;;;;;5.90;99.90;;;;;;5016399;28;19916;-72
2022/01/08 10:39:28;;;;;;;;;;;6.00;99.90;;;;;;5012936;28;19913;-72
2022/01/08 10:41:55;;;;;;;;;;;6.30;99.90;;;;;;5014473;28;19984;-71
2022/01/08 10:44:22;;;;;;;;;;;6.40;99.90;;;;;;5015558;28;19995;-71
2022/01/08 10:46:51;;;;;;;;;;;6.50;99.90;;;;;;5014444;28;19909;-72
2022/01/08 10:49:17;;;;;;;;;;;6.50;99.90;;;;;;5014501;28;19960;-71
2022/01/08 10:51:42;;;;;;;;;;;6.50;99.90;;;;;;5015875;28;20379;-73
2022/01/08 10:54:12;;;;;;;;;;;6.60;99.90;;;;;;5015529;28;19910;-71
2022/01/08 10:56:39;;;;;;;;;;;6.60;99.90;;;;;;5013606;28;19909;-71
2022/01/08 10:59:13;;;;;;;;;;;6.60;99.90;;;;;;5013335;28;20411;-71
2022/01/08 11:01:39;;;;;;;;;;;6.60;99.90;;;;;;5015197;28;19932;-71
2022/01/08 11:04:05;;;;;;;;;;;6.50;99.90;;;;;;5014017;28;20221;-71
2022/01/08 11:06:31;;;;;;;;;;;6.50;99.90;;;;;;5012165;28;19917;-72
2022/01/08 11:09:00;;;;;;;;;;;6.70;99.90;;;;;;5016602;28;19912;-71
2022/01/08 11:11:32;;;;;;;;;;;6.70;99.90;;;;;;5012499;28;19909;-70
2022/01/08 11:14:07;;;;;;;;;;;6.80;99.90;;;;;;5014819;28;20386;-72
2022/01/08 11:16:33;;;;;;;;;;;6.90;99.90;;;;;;5015935;28;19929;-71
2022/01/08 11:19:01;;;;;;;;;;;7.00;99.90;;;;;;5014959;28;19923;-71
2022/01/08 11:21:30;;;;;;;;;;;7.00;99.90;;;;;;5017175;28;20282;-72
2022/01/08 11:24:00;;;;;;;;;;;7.10;99.90;;;;;;5015062;28;19913;-71
2022/01/08 11:26:26;;;;;;;;;;;7.10;99.90;;;;;;5014299;28;19905;-71
2022/01/08 11:28:54;;;;;;;;;;;7.20;99.90;;;;;;5015686;28;20386;-70
2022/01/08 11:31:20;;;;;;;;;;;7.30;99.90;;;;;;5015179;28;19909;-76
2022/01/08 11:33:50;;;;;;;;;;;7.40;99.90;;;;;;5014818;28;19909;-72
2022/01/08 11:36:17;;;;;;;;;;;7.30;99.90;;;;;;5014209;28;19905;-72
2022/01/08 11:38:44;;;;;;;;;;;7.20;99.90;;;;;;5014800;28;20509;-71
2022/01/08 11:41:10;;;;;;;;;;;7.20;99.90;;;;;;5014075;28;19906;-70
2022/01/08 11:43:36;;;;;;;;;;;7.20;99.90;;;;;;5011955;28;19955;-71
2022/01/08 11:46:03;;;;;;;;;;;7.40;99.90;;;;;;5012733;28;19952;-70
2022/01/08 11:48:34;;;;;;;;;;;7.50;99.90;;;;;;5012886;28;19912;-69
2022/01/08 11:51:00;;;;;;;;;;;7.60;99.90;;;;;;5026464;28;20291;-71
2022/01/08 11:53:30;;;;;;;;;;;7.70;99.90;;;;;;5006198;28;19945;-69
2022/01/08 11:56:00;;;;;;;;;;;7.80;99.90;;;;;;5011789;28;19917;-72
2022/01/08 11:58:34;;;;;;;;;;;7.90;99.90;;;;;;5009623;28;19906;-70
2022/01/08 12:01:06;;;;;;;;;;;7.90;99.90;;;;;;5013178;28;19924;-70
2022/01/08 12:03:34;;;;;;;;;;;7.90;98.10;;;;;;5012361;28;19929;-69
2022/01/08 12:06:20;;;;;;;;;;;7.90;98.70;;;;;;5012238;28;19952;-69
2022/01/08 12:08:56;;;;;;;;;;;8.00;98.90;;;;;;5012542;28;19952;-70
2022/01/08 12:11:23;;;;;;;;;;;8.00;97.70;;;;;;5013587;28;19920;-69
2022/01/08 12:13:49;;;;;;;;;;;8.10;97.30;;;;;;5012303;28;19940;-70
2022/01/08 12:16:34;;;;;;;;;;;8.00;97.10;;;;;;5012644;28;19910;-71
2022/01/08 12:19:00;;;;;;;;;;;8.10;97.50;;;;;;5010045;28;19975;-70
2022/01/08 12:21:29;;;;;;;;;;;8.10;95.80;;;;;;5014308;28;19918;-70
2022/01/08 12:23:55;;;;;;;;;;;8.00;95.30;;;;;;5011870;28;19956;-70
2022/01/08 12:26:26;;;;;;;;;;;7.90;95.30;;;;;;5013203;28;19921;-72
2022/01/08 12:28:53;;;;;;;;;;;7.90;93.50;;;;;;5012565;28;19917;-70
2022/01/08 12:31:41;;;;;;;;;;;7.80;91.90;;;;;;5012479;28;19913;-71
2022/01/08 12:34:29;;;;;;;;;;;7.90;91.90;;;;;;5010888;28;21149;-72
2022/01/08 12:37:01;;;;;;;;;;;7.90;91.40;;;;;;5010363;28;19910;-70
2022/01/08 12:39:30;;;;;;;;;;;8.00;92.30;;;;;;5005833;28;20363;-70
2022/01/08 12:42:14;;;;;;;;;;;8.00;90.50;;;;;;5011270;28;19916;-69
2022/01/08 12:44:39;;;;;;;;;;;8.00;91.20;;;;;;5008310;28;19909;-69
2022/01/08 12:47:05;;;;;;;;;;;8.00;90.40;;;;;;5007699;28;19920;-71
2022/01/08 12:49:31;;;;;;;;;;;8.00;91.50;;;;;;5011599;28;19957;-71
2022/01/08 12:51:57;;;;;;;;;;;8.00;88.40;;;;;;5011127;28;19905;-70
2022/01/08 12:54:23;;;;;;;;;;;7.80;90.10;;;;;;5010090;28;20140;-70
2022/01/08 12:56:50;;;;;;;;;;;7.90;90.80;;;;;;5011680;28;19959;-69
2022/01/08 12:59:16;;;;;;;;;;;7.90;91.10;;;;;;5006979;28;20005;-69
2022/01/08 13:01:48;;;;;;;;;;;8.00;89.60;;;;;;5009779;28;19914;-70
2022/01/08 13:04:19;;;;;;;;;;;8.00;90.00;;;;;;5005231;28;19964;-70
2022/01/08 13:06:45;;;;;;;;;;;8.10;91.10;;;;;;5011384;28;20001;-69
2022/01/08 13:09:11;;;;;;;;;;;8.20;90.90;;;;;;5009465;28;19936;-70
2022/01/08 13:11:38;;;;;;;;;;;8.10;90.80;;;;;;5010106;28;19996;-69
2022/01/08 13:14:03;;;;;;;;;;;8.10;90.60;;;;;;5008536;28;19964;-69
2022/01/08 13:16:31;;;;;;;;;;;8.10;90.40;;;;;;5012090;28;19917;-70
2022/01/08 13:19:01;;;;;;;;;;;8.10;89.90;;;;;;5012158;28;20410;-70
2022/01/08 13:21:31;;;;;;;;;;;8.10;90.30;;;;;;5010577;28;19909;-70
2022/01/08 13:23:58;;;;;;;;;;;8.10;91.20;;;;;;5009642;28;19925;-70
2022/01/08 13:26:30;;;;;;;;;;;8.10;91.00;;;;;;5008357;28;20020;-70
2022/01/08 13:28:56;;;;;;;;;;;8.10;91.90;;;;;;5009268;28;20447;-70
2022/01/08 13:31:37;;;;;;;;;;;8.10;91.50;;;;;;5011761;28;19913;-70
2022/01/08 13:34:02;;;;;;;;;;;8.20;92.10;;;;;;5011209;28;19916;-70
2022/01/08 13:36:28;;;;;;;;;;;8.20;92.50;;;;;;5009006;28;19914;-70
2022/01/08 13:38:53;;;;;;;;;;;8.20;92.30;;;;;;5011000;28;19917;-68
2022/01/08 13:41:19;;;;;;;;;;;8.20;91.70;;;;;;5012054;28;20375;-69
2022/01/08 13:43:54;;;;;;;;;;;8.30;92.10;;;;;;5013675;28;20298;-70
2022/01/08 13:46:20;;;;;;;;;;;8.30;90.80;;;;;;5012203;28;20036;-70
2022/01/08 13:48:45;;;;;;;;;;;8.30;90.90;;;;;;5011745;28;19913;-70
2022/01/08 13:51:11;;;;;;;;;;;8.30;90.50;;;;;;5009643;28;19920;-68
2022/01/08 13:53:37;;;;;;;;;;;8.30;91.20;;;;;;5007330;28;19909;-69
2022/01/08 13:56:03;;;;;;;;;;;8.40;92.20;;;;;;5009401;28;20375;-69
2022/01/08 13:58:29;;;;;;;;;;;8.50;91.70;;;;;;5008955;28;19916;-69
2022/01/08 14:00:59;;;;;;;;;;;8.50;91.60;;;;;;5010804;28;19975;-70
2022/01/08 14:03:26;;;;;;;;;;;8.60;92.10;;;;;;5010459;28;19939;-69
2022/01/08 14:05:53;;;;;;;;;;;8.60;91.50;;;;;;5008646;28;20043;-69
2022/01/08 14:08:18;;;;;;;;;;;8.50;90.90;;;;;;5010663;28;19909;-68
2022/01/08 14:10:45;;;;;;;;;;;8.50;91.20;;;;;;5009059;28;20272;-68
2022/01/08 14:13:21;;;;;;;;;;;8.50;91.40;;;;;;5008670;28;19914;-68
2022/01/08 14:15:53;;;;;;;;;;;8.50;92.00;;;;;;5009042;28;20364;-68
2022/01/08 14:18:21;;;;;;;;;;;8.50;91.50;;;;;;5004663;28;19971;-68
2022/01/08 14:20:46;;;;;;;;;;;8.50;91.80;;;;;;5010647;28;19905;-69
2022/01/08 14:23:17;;;;;;;;;;;8.50;92.80;;;;;;5007750;28;19924;-68
2022/01/08 14:25:43;;;;;;;;;;;8.40;91.00;;;;;;5013244;28;19909;-69
2022/01/08 14:28:16;;;;;;;;;;;8.50;91.50;;;;;;5009886;28;19909;-69
2022/01/08 14:30:42;;;;;;;;;;;8.50;92.20;;;;;;5011118;28;20539;-69
2022/01/08 14:33:07;;;;;;;;;;;8.30;91.90;;;;;;5011658;28;19909;-67
2022/01/08 14:35:33;;;;;;;;;;;8.20;91.90;;;;;;5009926;28;19918;-69
2022/01/08 14:38:01;;;;;;;;;;;8.20;92.10;;;;;;5009796;28;19920;-70
2022/01/08 14:40:28;;;;;;;;;;;8.10;92.40;;;;;;5009067;28;19920;-69
2022/01/08 14:42:58;;;;;;;;;;;8.00;92.00;;;;;;5008923;28;19928;-71
2022/01/08 14:45:24;;;;;;;;;;;7.80;91.70;;;;;;5013534;28;20024;-69
2022/01/08 14:47:49;;;;;;;;;;;7.80;92.30;;;;;;5010815;28;20384;-69
2022/01/08 14:50:16;;;;;;;;;;;7.80;92.10;;;;;;5011462;28;19909;-69
2022/01/08 14:52:43;;;;;;;;;;;7.80;90.90;;;;;;5010537;28;20005;-68
2022/01/08 14:55:10;;;;;;;;;;;7.70;90.20;;;;;;5007504;28;19909;-68